createdAt,value
2018-07-21T00:00:55.070Z,63.38
2018-07-21T00:03:23.447Z,63.57
2018-07-21T00:05:51.895Z,63.88
2018-07-21T00:08:20.225Z,63.39
2018-07-21T00:10:48.504Z,62.94
2018-07-21T00:13:16.861Z,63.51
2018-07-21T00:15:45.177Z,63.27
2018-07-21T00:18:13.707Z,63.03
2018-07-21T00:20:42.136Z,62.80
2018-07-21T00:23:10.461Z,62.77
2018-07-21T00:25:38.738Z,63.94
2018-07-21T00:28:07.070Z,64.41
2018-07-21T00:30:35.397Z,64.29
2018-07-21T00:33:03.759Z,64.27
2018-07-21T00:35:32.075Z,64.31
2018-07-21T00:38:00.641Z,63.85
2018-07-21T00:40:29.277Z,64.18
2018-07-21T00:42:57.571Z,65.26
2018-07-21T00:45:25.862Z,65.68
2018-07-21T00:47:54.235Z,64.97
2018-07-21T00:50:22.506Z,65.05
2018-07-21T00:52:50.857Z,65.84
2018-07-21T00:55:19.251Z,65.13
2018-07-21T00:57:47.786Z,65.57
2018-07-21T01:00:16.087Z,65.79
2018-07-21T01:02:44.415Z,65.99
2018-07-21T01:05:12.735Z,65.42
2018-07-21T01:07:41.327Z,65.03
2018-07-21T01:10:09.647Z,65.53
2018-07-21T01:12:38.390Z,64.76
2018-07-21T01:15:07.457Z,64.85
2018-07-21T01:17:35.886Z,64.62
2018-07-21T01:20:04.807Z,64.53
2018-07-21T01:22:33.153Z,65.03
2018-07-21T01:25:01.474Z,64.99
2018-07-21T01:27:30.080Z,64.31
2018-07-21T01:29:58.671Z,64.96
2018-07-21T01:32:26.999Z,64.50
2018-07-21T01:34:55.290Z,64.50
2018-07-21T01:37:24.091Z,64.83
2018-07-21T01:39:52.366Z,65.29
2018-07-21T01:42:20.690Z,65.69
2018-07-21T01:44:49.005Z,65.25
2018-07-21T01:47:17.338Z,65.28
2018-07-21T01:49:45.697Z,65.57
2018-07-21T01:52:13.983Z,65.78
2018-07-21T01:54:42.340Z,65.58
2018-07-21T01:57:10.629Z,66.15
2018-07-21T01:59:39.023Z,65.25
2018-07-21T02:02:07.340Z,65.37
2018-07-21T02:04:35.686Z,65.43
2018-07-21T02:07:04.042Z,65.45
2018-07-21T02:09:32.399Z,65.82
2018-07-21T02:12:00.686Z,64.69
2018-07-21T02:14:29.164Z,65.17
2018-07-21T02:16:57.495Z,66.01
2018-07-21T02:19:25.851Z,65.57
2018-07-21T02:21:54.379Z,65.84
2018-07-21T02:24:22.759Z,66.14
2018-07-21T02:26:51.050Z,65.81
2018-07-21T02:29:19.430Z,65.51
2018-07-21T02:31:47.832Z,65.53
2018-07-21T02:34:16.139Z,65.24
2018-07-21T02:36:44.414Z,65.00
2018-07-21T02:39:13.342Z,65.62
2018-07-21T02:41:41.758Z,65.15
2018-07-21T02:44:10.086Z,64.16
2018-07-21T02:46:38.398Z,64.96
2018-07-21T02:49:07.047Z,64.55
2018-07-21T02:51:35.371Z,64.18
2018-07-21T02:54:04.003Z,63.73
2018-07-21T02:56:32.374Z,63.14
2018-07-21T02:59:00.695Z,63.00
2018-07-21T03:01:29.054Z,62.99
2018-07-21T03:03:57.415Z,62.52
2018-07-21T03:06:25.735Z,63.76
2018-07-21T03:08:54.075Z,64.01
2018-07-21T03:11:22.352Z,64.99
2018-07-21T03:13:50.669Z,64.07
2018-07-21T03:16:18.959Z,62.81
2018-07-21T03:18:47.264Z,63.70
2018-07-21T03:21:15.700Z,64.09
2018-07-21T03:23:44.159Z,64.05
2018-07-21T03:26:12.458Z,64.08
2018-07-21T03:28:40.773Z,63.92
2018-07-21T03:31:09.129Z,64.19
2018-07-21T03:33:37.422Z,63.67
2018-07-21T03:36:05.856Z,63.71
2018-07-21T03:38:34.236Z,62.62
2018-07-21T03:41:02.590Z,62.53
2018-07-21T03:43:31.027Z,61.83
2018-07-21T03:45:59.389Z,62.89
2018-07-21T03:48:27.672Z,61.54
2018-07-21T03:50:56.115Z,60.71
2018-07-21T03:53:24.410Z,61.49
2018-07-21T03:55:52.811Z,60.42
2018-07-21T03:58:21.092Z,61.13
2018-07-21T04:00:49.694Z,59.77
2018-07-21T04:03:18.038Z,60.39
2018-07-21T04:05:46.566Z,60.79
2018-07-21T04:08:15.007Z,60.88
2018-07-21T04:10:43.335Z,60.86
2018-07-21T04:13:11.728Z,60.26
2018-07-21T04:15:40.034Z,58.54
2018-07-21T04:18:08.298Z,59.50
2018-07-21T04:20:36.621Z,61.42
2018-07-21T04:23:04.951Z,60.92
2018-07-21T04:25:33.350Z,60.71
2018-07-21T04:28:01.648Z,60.11
2018-07-21T04:30:30.012Z,59.26
2018-07-21T04:32:58.337Z,58.48
2018-07-21T04:35:26.666Z,57.26
2018-07-21T04:37:55.012Z,56.66
2018-07-21T04:40:23.405Z,54.56
2018-07-21T04:42:52.230Z,53.58
2018-07-21T04:45:20.598Z,54.11
2018-07-21T04:47:51.111Z,53.62
2018-07-21T04:50:20.027Z,52.77
2018-07-21T04:52:48.314Z,52.53
2018-07-21T04:55:16.648Z,52.43
2018-07-21T04:57:44.941Z,52.50
2018-07-21T05:00:13.593Z,51.84
2018-07-21T05:02:41.889Z,51.48
2018-07-21T05:05:10.220Z,51.24
2018-07-21T05:07:38.506Z,50.58
2018-07-21T05:10:06.958Z,51.47
2018-07-21T05:12:35.323Z,50.94
2018-07-21T05:15:04.229Z,50.79
2018-07-21T05:17:32.567Z,50.48
2018-07-21T05:20:00.866Z,51.25
2018-07-21T05:22:29.181Z,49.70
2018-07-21T05:24:57.744Z,49.67
2018-07-21T05:27:26.263Z,49.60
2018-07-21T05:29:55.588Z,49.52
2018-07-21T05:32:23.942Z,49.34
2018-07-21T05:34:52.230Z,48.83
2018-07-21T05:37:20.574Z,48.89
2018-07-21T05:39:48.867Z,49.11
2018-07-21T05:42:17.165Z,49.40
2018-07-21T05:44:45.600Z,49.00
2018-07-21T05:47:13.938Z,48.25
2018-07-21T05:49:42.222Z,48.48
2018-07-21T05:52:10.564Z,47.84
2018-07-21T05:54:38.991Z,47.64
2018-07-21T05:57:07.263Z,48.24
2018-07-21T05:59:35.560Z,48.37
2018-07-21T06:02:03.895Z,48.27
2018-07-21T06:04:32.322Z,47.99
2018-07-21T06:07:00.718Z,48.55
2018-07-21T06:09:29.547Z,47.83
2018-07-21T06:11:57.870Z,48.56
2018-07-21T06:14:26.194Z,48.76
2018-07-21T06:16:54.790Z,47.52
2018-07-21T06:19:23.026Z,47.64
2018-07-21T06:21:51.326Z,48.61
2018-07-21T06:24:19.616Z,47.39
2018-07-21T06:26:47.977Z,47.91
2018-07-21T06:29:16.342Z,48.35
2018-07-21T06:31:44.726Z,47.31
2018-07-21T06:34:13.029Z,49.00
2018-07-21T06:36:41.392Z,48.28
2018-07-21T06:39:11.927Z,47.54
2018-07-21T06:41:40.581Z,47.19
2018-07-21T06:44:09.159Z,47.26
2018-07-21T06:46:37.714Z,47.58
2018-07-21T06:49:06.029Z,48.52
2018-07-21T06:51:34.437Z,47.91
2018-07-21T06:54:02.795Z,47.02
2018-07-21T06:56:31.214Z,46.26
2018-07-21T06:58:59.564Z,47.32
2018-07-21T07:01:27.893Z,45.84
2018-07-21T07:03:56.367Z,45.63
2018-07-21T07:06:24.668Z,46.40
2018-07-21T07:08:53.163Z,45.81
2018-07-21T07:11:21.527Z,45.64
2018-07-21T07:13:49.841Z,46.34
2018-07-21T07:16:18.395Z,45.08
2018-07-21T07:18:46.790Z,44.54
2018-07-21T07:21:15.298Z,45.77
2018-07-21T07:23:52.772Z,44.10
2018-07-21T07:26:29.154Z,43.98
2018-07-21T07:28:57.487Z,43.69
2018-07-21T07:31:25.771Z,45.20
2018-07-21T07:33:54.946Z,44.12
2018-07-21T07:36:23.237Z,44.97
2018-07-21T07:38:51.908Z,44.62
2018-07-21T07:41:20.743Z,43.78
2018-07-21T07:43:50.968Z,43.85
2018-07-21T07:46:19.346Z,42.39
2018-07-21T07:48:47.702Z,41.45
2018-07-21T07:51:16.713Z,42.49
2018-07-21T07:53:45.334Z,41.38
2018-07-21T07:56:13.706Z,40.94
2018-07-21T07:58:42.191Z,40.87
2018-07-21T08:01:10.591Z,39.72
2018-07-21T08:03:39.025Z,41.37
2018-07-21T08:06:07.380Z,40.19
2018-07-21T08:08:35.747Z,39.41
2018-07-21T08:11:04.165Z,40.68
2018-07-21T08:13:32.627Z,40.08
2018-07-21T08:16:01.867Z,41.47
2018-07-21T08:18:30.219Z,40.30
2018-07-21T08:20:58.518Z,39.45
2018-07-21T08:23:27.126Z,39.59
2018-07-21T08:25:55.532Z,39.95
2018-07-21T08:28:23.907Z,39.46
2018-07-21T08:30:52.222Z,37.84
2018-07-21T08:33:20.688Z,38.46
2018-07-21T08:35:48.990Z,37.26
2018-07-21T08:38:17.456Z,36.59
2018-07-21T08:40:45.784Z,37.86
2018-07-21T08:43:14.162Z,38.47
2018-07-21T08:45:42.501Z,38.00
2018-07-21T08:48:11.100Z,38.19
2018-07-21T08:50:39.564Z,36.67
2018-07-21T08:53:08.104Z,38.46
2018-07-21T08:55:36.738Z,36.37
2018-07-21T08:58:05.301Z,37.20
2018-07-21T09:00:34.650Z,36.68
2018-07-21T09:03:02.984Z,37.12
2018-07-21T09:05:31.305Z,36.21
2018-07-21T09:07:59.593Z,36.99
2018-07-21T09:10:27.995Z,37.28
2018-07-21T09:12:56.304Z,36.21
2018-07-21T09:15:24.679Z,35.21
2018-07-21T09:17:52.992Z,35.58
2018-07-21T09:20:21.413Z,36.36
2018-07-21T09:22:49.707Z,35.72
2018-07-21T09:25:18.081Z,36.19
2018-07-21T09:27:46.504Z,34.93
2018-07-21T09:30:14.964Z,36.04
2018-07-21T09:32:44.185Z,35.08
2018-07-21T09:35:12.563Z,35.65
2018-07-21T09:37:40.932Z,35.42
2018-07-21T09:40:09.297Z,36.22
2018-07-21T09:42:37.615Z,36.05
2018-07-21T09:45:06.127Z,35.41
2018-07-21T09:47:34.517Z,35.06
2018-07-21T09:50:02.944Z,35.08
2018-07-21T09:52:31.306Z,36.09
2018-07-21T09:54:59.621Z,35.90
2018-07-21T09:57:28.012Z,36.92
2018-07-21T09:59:56.427Z,35.95
2018-07-21T10:02:24.855Z,35.42
2018-07-21T10:04:53.749Z,35.99
2018-07-21T10:07:22.067Z,35.97
2018-07-21T10:09:50.392Z,35.99
2018-07-21T10:12:19.217Z,34.42
2018-07-21T10:14:47.636Z,34.75
2018-07-21T10:17:15.999Z,34.43
2018-07-21T10:19:44.367Z,35.10
2018-07-21T10:22:12.805Z,34.08
2018-07-21T10:24:46.546Z,33.48
2018-07-21T10:27:15.886Z,34.01
2018-07-21T10:29:44.223Z,34.84
2018-07-21T10:32:12.666Z,34.47
2018-07-21T10:34:41.164Z,34.87
2018-07-21T10:37:09.849Z,35.01
2018-07-21T10:39:38.249Z,34.50
2018-07-21T10:42:07.060Z,34.17
2018-07-21T10:44:35.359Z,34.81
2018-07-21T10:47:03.651Z,35.10
2018-07-21T10:49:31.982Z,34.86
2018-07-21T10:52:00.360Z,34.88
2018-07-21T10:54:28.695Z,34.00
2018-07-21T10:56:57.038Z,34.25
2018-07-21T10:59:25.363Z,34.78
2018-07-21T11:01:53.751Z,35.00
2018-07-21T11:04:22.161Z,34.76
2018-07-21T11:06:50.518Z,33.83
2018-07-21T11:09:18.843Z,33.67
2018-07-21T11:11:49.979Z,34.46
2018-07-21T11:14:18.465Z,34.86
2018-07-21T11:16:46.835Z,34.69
2018-07-21T11:19:21.588Z,34.52
2018-07-21T11:21:52.707Z,34.86
2018-07-21T11:24:22.195Z,34.66
2018-07-21T11:26:53.433Z,35.75
2018-07-21T11:29:22.626Z,35.75
2018-07-21T11:31:51.596Z,34.35
2018-07-21T11:34:20.352Z,34.77
2018-07-21T11:36:50.884Z,34.40
2018-07-21T11:39:20.277Z,34.09
2018-07-21T11:41:49.810Z,32.61
2018-07-21T11:44:23.931Z,33.75
2018-07-21T11:46:53.973Z,34.20
2018-07-21T11:49:23.766Z,35.18
2018-07-21T11:51:55.801Z,33.64
2018-07-21T11:54:25.318Z,33.96
2018-07-21T11:56:58.930Z,34.18
2018-07-21T11:59:31.995Z,35.54
2018-07-21T12:02:00.392Z,35.86
2018-07-21T12:04:29.713Z,35.20
2018-07-21T12:06:59.299Z,35.35
2018-07-21T12:09:27.578Z,35.20
2018-07-21T12:11:56.086Z,34.67
2018-07-21T12:14:24.695Z,34.90
2018-07-21T12:16:53.079Z,35.38
2018-07-21T12:19:21.335Z,35.56
2018-07-21T12:21:49.663Z,36.59
2018-07-21T12:24:17.999Z,36.25
2018-07-21T12:26:46.360Z,35.94
2018-07-21T12:29:14.775Z,36.32
2018-07-21T12:31:43.175Z,36.64
2018-07-21T12:34:11.689Z,37.02
2018-07-21T12:36:39.944Z,38.24
2018-07-21T12:39:09.846Z,37.45
2018-07-21T12:41:38.463Z,37.59
2018-07-21T12:44:06.850Z,38.24
2018-07-21T12:46:35.322Z,38.17
2018-07-21T12:49:03.733Z,38.39
2018-07-21T12:51:32.493Z,37.61
2018-07-21T12:54:00.808Z,38.32
2018-07-21T12:56:29.394Z,37.96
2018-07-21T12:58:57.705Z,39.74
2018-07-21T13:01:26.083Z,38.45
2018-07-21T13:03:54.407Z,39.29
2018-07-21T13:06:22.763Z,38.61
2018-07-21T13:08:51.040Z,37.90
2018-07-21T13:11:19.485Z,38.76
2018-07-21T13:13:53.438Z,38.08
2018-07-21T13:16:23.314Z,38.54
2018-07-21T13:18:51.627Z,38.55
2018-07-21T13:21:20.316Z,39.43
2018-07-21T13:23:52.093Z,38.43
2018-07-21T13:26:24.610Z,39.04
2018-07-21T13:29:01.147Z,38.71
2018-07-21T13:31:36.952Z,39.48
2018-07-21T13:34:05.495Z,39.89
2018-07-21T13:36:33.845Z,39.70
2018-07-21T13:39:02.122Z,39.13
2018-07-21T13:41:30.451Z,40.25
2018-07-21T13:43:58.790Z,38.69
2018-07-21T13:46:27.109Z,39.39
2018-07-21T13:48:55.598Z,38.62
2018-07-21T13:51:24.008Z,39.39
2018-07-21T13:53:52.769Z,38.09
2018-07-21T13:56:21.132Z,38.69
2018-07-21T13:58:49.452Z,39.22
2018-07-21T14:01:17.750Z,38.32
2018-07-21T14:03:46.425Z,39.19
2018-07-21T14:06:15.040Z,37.89
2018-07-21T14:08:43.438Z,39.85
2018-07-21T14:11:11.746Z,39.63
2018-07-21T14:13:40.109Z,38.05
2018-07-21T14:16:08.590Z,39.36
2018-07-21T14:18:36.947Z,39.40
2018-07-21T14:21:05.285Z,38.90
2018-07-21T14:23:33.592Z,40.06
2018-07-21T14:26:01.870Z,39.46
2018-07-21T14:28:30.178Z,39.60
2018-07-21T14:30:58.556Z,40.03
2018-07-21T14:33:26.889Z,39.86
2018-07-21T14:35:55.394Z,39.45
2018-07-21T14:38:23.658Z,39.76
2018-07-21T14:40:51.939Z,40.21
2018-07-21T14:43:20.711Z,40.68
2018-07-21T14:45:48.986Z,42.27
2018-07-21T14:48:17.303Z,41.70
2018-07-21T14:50:45.575Z,41.75
2018-07-21T14:53:14.020Z,41.46
2018-07-21T14:55:42.520Z,42.04
2018-07-21T14:58:10.939Z,42.05
2018-07-21T15:00:39.249Z,42.46
2018-07-21T15:03:07.606Z,42.91
2018-07-21T15:05:35.922Z,42.71
2018-07-21T15:08:04.301Z,43.63
2018-07-21T15:10:32.646Z,43.32
2018-07-21T15:13:01.107Z,44.06
2018-07-21T15:15:29.507Z,43.57
2018-07-21T15:17:58.199Z,43.96
2018-07-21T15:20:26.560Z,44.91
2018-07-21T15:22:54.992Z,45.24
2018-07-21T15:25:23.326Z,45.38
2018-07-21T15:27:52.271Z,46.02
2018-07-21T15:30:20.994Z,45.50
2018-07-21T15:32:49.371Z,47.33
2018-07-21T15:35:18.100Z,47.82
2018-07-21T15:37:46.824Z,47.15
2018-07-21T15:40:15.249Z,48.00
2018-07-21T15:42:43.579Z,48.15
2018-07-21T15:45:13.136Z,46.60
2018-07-21T15:47:41.706Z,47.03
2018-07-21T15:50:11.946Z,47.19
2018-07-21T15:52:52.826Z,48.22
2018-07-21T15:55:21.875Z,48.17
2018-07-21T15:57:56.309Z,48.08
2018-07-21T16:00:29.575Z,48.43
2018-07-21T16:02:57.914Z,48.79
2018-07-21T16:05:29.169Z,48.63
2018-07-21T16:07:58.489Z,48.60
2018-07-21T16:10:27.270Z,48.61
2018-07-21T16:12:56.554Z,48.22
2018-07-21T16:15:25.228Z,47.99
2018-07-21T16:17:53.607Z,48.71
2018-07-21T16:20:21.955Z,47.82
2018-07-21T16:22:50.248Z,48.31
2018-07-21T16:25:18.622Z,48.25
2018-07-21T16:27:47.126Z,48.62
2018-07-21T16:30:15.436Z,47.90
2018-07-21T16:32:44.967Z,47.64
2018-07-21T16:35:13.732Z,48.26
2018-07-21T16:37:42.140Z,47.26
2018-07-21T16:40:10.764Z,48.00
2018-07-21T16:42:39.054Z,47.70
2018-07-21T16:45:07.446Z,48.01
2018-07-21T16:47:36.300Z,47.35
2018-07-21T16:50:04.780Z,48.29
2018-07-21T16:52:33.134Z,48.36
2018-07-21T16:55:01.579Z,48.54
2018-07-21T16:57:29.875Z,47.61
2018-07-21T16:59:58.693Z,47.55
2018-07-21T17:02:26.947Z,48.06
2018-07-21T17:04:55.590Z,47.56
2018-07-21T17:07:24.381Z,46.69
2018-07-21T17:09:53.177Z,47.18
2018-07-21T17:12:24.660Z,46.84
2018-07-21T17:14:53.273Z,45.85
2018-07-21T17:17:21.712Z,45.57
2018-07-21T17:19:50.229Z,46.34
2018-07-21T17:22:19.714Z,45.57
2018-07-21T17:24:48.134Z,45.58
2018-07-21T17:27:16.790Z,46.18
2018-07-21T17:29:45.165Z,46.02
2018-07-21T17:32:13.567Z,46.84
2018-07-21T17:34:42.156Z,46.47
2018-07-21T17:37:10.520Z,45.66
2018-07-21T17:39:38.929Z,46.68
2018-07-21T17:42:07.276Z,46.23
2018-07-21T17:44:35.612Z,46.32
2018-07-21T17:47:03.981Z,47.60
2018-07-21T17:49:32.346Z,47.50
2018-07-21T17:52:00.710Z,47.58
2018-07-21T17:54:29.418Z,47.69
2018-07-21T17:56:57.720Z,48.36
2018-07-21T17:59:26.078Z,47.66
2018-07-21T18:01:54.505Z,48.30
2018-07-21T18:04:22.943Z,47.80
2018-07-21T18:06:52.192Z,48.96
2018-07-21T18:09:21.201Z,48.13
2018-07-21T18:11:50.088Z,48.81
2018-07-21T18:14:18.568Z,48.85
2018-07-21T18:16:47.286Z,49.10
2018-07-21T18:19:15.728Z,49.66
2018-07-21T18:21:44.674Z,48.83
2018-07-21T18:24:12.968Z,49.04
2018-07-21T18:26:42.028Z,49.32
2018-07-21T18:29:10.353Z,49.23
2018-07-21T18:31:38.756Z,49.49
2018-07-21T18:34:07.416Z,49.36
2018-07-21T18:36:35.878Z,49.01
2018-07-21T18:39:05.028Z,49.92
2018-07-21T18:41:33.431Z,49.98
2018-07-21T18:44:05.022Z,50.04
2018-07-21T18:46:33.372Z,49.12
2018-07-21T18:49:01.878Z,50.12
2018-07-21T18:51:30.191Z,51.44
2018-07-21T18:53:58.628Z,52.29
2018-07-21T18:56:26.968Z,53.24
2018-07-21T18:58:55.259Z,53.88
2018-07-21T19:01:24.957Z,54.38
2018-07-21T19:03:56.758Z,55.97
2018-07-21T19:06:26.466Z,55.71
2018-07-21T19:09:05.347Z,55.55
2018-07-21T19:11:33.816Z,55.54
2018-07-21T19:14:02.386Z,56.70
2018-07-21T19:16:36.176Z,58.47
2018-07-21T19:19:04.907Z,58.71
2018-07-21T19:21:33.281Z,58.41
2018-07-21T19:24:03.000Z,59.02
2018-07-21T19:26:37.872Z,59.62
2018-07-21T19:29:06.711Z,59.27
2018-07-21T19:31:35.448Z,59.73
2018-07-21T19:34:03.924Z,60.32
2018-07-21T19:36:45.922Z,61.10
2018-07-21T19:39:15.303Z,60.40
2018-07-21T19:41:49.587Z,60.19
2018-07-21T19:44:19.722Z,60.83
2018-07-21T19:46:48.691Z,60.57
2018-07-21T19:49:17.164Z,60.86
2018-07-21T19:54:41.235Z,61.00
2018-07-21T19:57:10.998Z,61.07
2018-07-21T19:59:39.555Z,60.83
2018-07-21T20:02:08.634Z,61.25
2018-07-21T20:04:40.983Z,61.88
2018-07-21T20:07:10.286Z,63.27
2018-07-21T20:09:41.049Z,63.79
2018-07-21T20:12:10.343Z,63.46
2018-07-21T20:14:39.451Z,61.88
2018-07-21T20:17:10.184Z,60.88
2018-07-21T20:19:39.203Z,61.56
2018-07-21T20:22:07.556Z,61.41
2018-07-21T20:24:36.255Z,60.86
2018-07-21T20:27:04.593Z,61.59
2018-07-21T20:29:32.890Z,60.59
2018-07-21T20:32:01.243Z,61.07
2018-07-21T20:34:29.522Z,62.19
2018-07-21T20:36:57.915Z,62.72
2018-07-21T20:39:26.246Z,62.86
2018-07-21T20:41:54.586Z,63.51
2018-07-21T20:44:22.916Z,62.78
2018-07-21T20:46:51.591Z,63.52
2018-07-21T20:49:24.261Z,62.84
2018-07-21T20:51:53.049Z,62.95
2018-07-21T20:54:21.382Z,63.58
2018-07-21T20:56:50.952Z,63.10
2018-07-21T20:59:19.283Z,62.78
2018-07-21T21:01:48.714Z,63.44
2018-07-21T21:04:18.386Z,64.18
2018-07-21T21:06:46.775Z,64.00
2018-07-21T21:09:15.194Z,64.08
2018-07-21T21:11:43.772Z,64.53
2018-07-21T21:14:13.155Z,63.35
2018-07-21T21:16:42.347Z,63.64
2018-07-21T21:19:10.674Z,64.40
2018-07-21T21:21:39.184Z,64.22
2018-07-21T21:24:07.624Z,64.24
2018-07-21T21:26:40.941Z,63.71
2018-07-21T21:29:09.539Z,64.84
2018-07-21T21:31:38.395Z,63.87
2018-07-21T21:34:10.807Z,64.28
2018-07-21T21:36:39.947Z,64.81
2018-07-21T21:39:12.838Z,64.46
2018-07-21T21:41:42.908Z,64.73
2018-07-21T21:44:11.255Z,64.14
2018-07-21T21:46:39.574Z,65.11
2018-07-21T21:49:09.350Z,65.15
2018-07-21T21:51:37.999Z,64.73
2018-07-21T21:54:07.141Z,65.12
2018-07-21T21:56:35.763Z,64.32
2018-07-21T21:59:04.752Z,64.56
2018-07-21T22:01:35.713Z,65.25
2018-07-21T22:04:07.554Z,65.16
2018-07-21T22:06:35.963Z,64.91
2018-07-21T22:09:08.061Z,65.16
2018-07-21T22:11:36.474Z,64.91
2018-07-21T22:14:05.494Z,65.21
2018-07-21T22:16:34.001Z,65.53
2018-07-21T22:19:02.354Z,65.25
2018-07-21T22:21:31.920Z,64.44
2018-07-21T22:24:00.281Z,64.85
2018-07-21T22:26:28.609Z,66.12
2018-07-21T22:28:56.975Z,64.83
2018-07-21T22:31:25.307Z,64.98
2018-07-21T22:33:53.648Z,64.70
2018-07-21T22:36:22.039Z,64.69
2018-07-21T22:38:50.432Z,64.20
2018-07-21T22:41:18.754Z,64.71
2018-07-21T22:43:47.188Z,64.92
2018-07-21T22:46:15.608Z,65.94
2018-07-21T22:48:43.958Z,64.55
2018-07-21T22:51:12.336Z,64.96
2018-07-21T22:53:48.986Z,64.50
2018-07-21T22:56:17.322Z,65.26
2018-07-21T22:58:45.951Z,65.05
2018-07-21T23:01:14.663Z,64.88
2018-07-21T23:03:43.315Z,64.55
2018-07-21T23:06:11.690Z,62.57
2018-07-21T23:08:40.050Z,62.17
2018-07-21T23:11:08.448Z,62.41
2018-07-21T23:13:36.786Z,63.08
2018-07-21T23:16:05.162Z,62.50
2018-07-21T23:18:33.564Z,63.16
2018-07-21T23:21:01.899Z,62.85
2018-07-21T23:23:30.884Z,63.59
2018-07-21T23:25:59.199Z,63.74
2018-07-21T23:28:27.605Z,63.40
2018-07-21T23:30:56.106Z,63.79
2018-07-21T23:33:24.453Z,65.32
2018-07-21T23:35:54.610Z,65.48
2018-07-21T23:38:23.050Z,64.71
2018-07-21T23:40:51.454Z,63.87
2018-07-21T23:43:20.182Z,64.69
2018-07-21T23:45:48.753Z,63.44
2018-07-21T23:48:17.033Z,63.65
2018-07-21T23:50:45.418Z,62.97
2018-07-21T23:53:13.778Z,62.89
2018-07-21T23:55:42.211Z,62.03
2018-07-21T23:58:10.798Z,62.33
